sensor_id;sensor_type;location;lat;lon;timestamp;P1;durP1;ratioP1;P2;durP2;ratioP2
64857;SDS011;51335;51.148;6.950;2023-07-24T00:00:20;4.18;;;2.70;;
64857;SDS011;51335;51.148;6.950;2023-07-24T00:00:50;3.30;;;2.50;;
64857;SDS011;51335;51.148;6.950;2023-07-24T00:01:20;5.30;;;2.75;;
64857;SDS011;51335;51.148;6.950;2023-07-24T00:01:51;3.53;;;2.50;;
64857;SDS011;51335;51.148;6.950;2023-07-24T00:02:21;5.30;;;2.50;;
64857;SDS011;51335;51.148;6.950;2023-07-24T00:02:51;3.70;;;2.47;;
64857;SDS011;51335;51.148;6.950;2023-07-24T00:03:21;3.67;;;2.40;;
64857;SDS011;51335;51.148;6.950;2023-07-24T00:03:52;4.75;;;2.67;;
64857;SDS011;51335;51.148;6.950;2023-07-24T00:04:22;3.63;;;2.28;;
64857;SDS011;51335;51.148;6.950;2023-07-24T00:04:52;5.18;;;2.47;;
64857;SDS011;51335;51.148;6.950;2023-07-24T00:05:23;4.82;;;2.63;;
64857;SDS011;51335;51.148;6.950;2023-07-24T00:05:57;2.83;;;2.38;;
64857;SDS011;51335;51.148;6.950;2023-07-24T00:06:27;3.78;;;2.42;;
64857;SDS011;51335;51.148;6.950;2023-07-24T00:06:58;3.28;;;2.40;;
64857;SDS011;51335;51.148;6.950;2023-07-24T00:07:29;3.42;;;2.25;;
64857;SDS011;51335;51.148;6.950;2023-07-24T00:08:00;3.47;;;2.45;;
64857;SDS011;51335;51.148;6.950;2023-07-24T00:08:30;3.92;;;2.50;;
64857;SDS011;51335;51.148;6.950;2023-07-24T00:09:00;7.30;;;2.67;;
64857;SDS011;51335;51.148;6.950;2023-07-24T00:09:30;4.72;;;2.60;;
64857;SDS011;51335;51.148;6.950;2023-07-24T00:10:01;5.05;;;2.50;;
64857;SDS011;51335;51.148;6.950;2023-07-24T00:10:31;4.32;;;2.50;;
64857;SDS011;51335;51.148;6.950;2023-07-24T00:11:02;5.50;;;2.70;;
64857;SDS011;51335;51.148;6.950;2023-07-24T00:11:32;4.20;;;2.63;;
64857;SDS011;51335;51.148;6.950;2023-07-24T00:12:02;4.22;;;2.78;;
64857;SDS011;51335;51.148;6.950;2023-07-24T00:12:33;3.83;;;2.50;;
64857;SDS011;51335;51.148;6.950;2023-07-24T00:13:03;4.47;;;2.60;;
64857;SDS011;51335;51.148;6.950;2023-07-24T00:13:33;4.53;;;2.60;;
64857;SDS011;51335;51.148;6.950;2023-07-24T00:14:03;3.88;;;2.45;;
64857;SDS011;51335;51.148;6.950;2023-07-24T00:14:34;4.55;;;2.70;;
64857;SDS011;51335;51.148;6.950;2023-07-24T00:15:04;6.05;;;2.60;;
64857;SDS011;51335;51.148;6.950;2023-07-24T00:15:35;6.45;;;2.85;;
64857;SDS011;51335;51.148;6.950;2023-07-24T00:16:06;6.60;;;2.83;;
64857;SDS011;51335;51.148;6.950;2023-07-24T00:16:37;4.05;;;3.08;;
64857;SDS011;51335;51.148;6.950;2023-07-24T00:17:07;8.23;;;3.17;;
64857;SDS011;51335;51.148;6.950;2023-07-24T00:17:38;6.22;;;2.60;;
64857;SDS011;51335;51.148;6.950;2023-07-24T00:18:08;3.83;;;2.80;;
64857;SDS011;51335;51.148;6.950;2023-07-24T00:18:38;5.82;;;2.65;;
64857;SDS011;51335;51.148;6.950;2023-07-24T00:19:08;3.97;;;2.80;;
64857;SDS011;51335;51.148;6.950;2023-07-24T00:19:39;5.13;;;2.83;;
64857;SDS011;51335;51.148;6.950;2023-07-24T00:20:09;4.35;;;2.75;;
64857;SDS011;51335;51.148;6.950;2023-07-24T00:20:40;6.50;;;2.63;;
64857;SDS011;51335;51.148;6.950;2023-07-24T00:21:10;3.72;;;2.55;;
64857;SDS011;51335;51.148;6.950;2023-07-24T00:21:40;3.38;;;2.63;;
64857;SDS011;51335;51.148;6.950;2023-07-24T00:22:10;3.70;;;2.95;;
64857;SDS011;51335;51.148;6.950;2023-07-24T00:22:41;5.30;;;2.35;;
64857;SDS011;51335;51.148;6.950;2023-07-24T00:23:11;5.03;;;2.60;;
64857;SDS011;51335;51.148;6.950;2023-07-24T00:23:41;3.90;;;2.80;;
64857;SDS011;51335;51.148;6.950;2023-07-24T00:24:11;4.88;;;2.80;;
64857;SDS011;51335;51.148;6.950;2023-07-24T00:24:42;4.53;;;2.50;;
64857;SDS011;51335;51.148;6.950;2023-07-24T00:25:12;4.43;;;2.55;;
64857;SDS011;51335;51.148;6.950;2023-07-24T00:25:42;6.28;;;2.83;;
64857;SDS011;51335;51.148;6.950;2023-07-24T00:26:13;6.13;;;2.58;;
64857;SDS011;51335;51.148;6.950;2023-07-24T00:26:43;5.30;;;2.55;;
64857;SDS011;51335;51.148;6.950;2023-07-24T00:27:13;3.67;;;2.60;;
64857;SDS011;51335;51.148;6.950;2023-07-24T00:27:43;3.88;;;2.53;;
64857;SDS011;51335;51.148;6.950;2023-07-24T00:28:14;4.63;;;2.80;;
64857;SDS011;51335;51.148;6.950;2023-07-24T00:28:44;5.38;;;2.60;;
64857;SDS011;51335;51.148;6.950;2023-07-24T00:29:14;5.25;;;2.22;;
64857;SDS011;51335;51.148;6.950;2023-07-24T00:29:44;4.72;;;2.92;;
64857;SDS011;51335;51.148;6.950;2023-07-24T00:30:15;4.80;;;2.67;;
64857;SDS011;51335;51.148;6.950;2023-07-24T00:30:45;6.00;;;2.75;;
64857;SDS011;51335;51.148;6.950;2023-07-24T00:31:15;5.75;;;2.80;;
64857;SDS011;51335;51.148;6.950;2023-07-24T00:31:46;5.07;;;2.67;;
64857;SDS011;51335;51.148;6.950;2023-07-24T00:32:16;6.32;;;2.60;;
64857;SDS011;51335;51.148;6.950;2023-07-24T00:32:46;4.15;;;2.72;;
64857;SDS011;51335;51.148;6.950;2023-07-24T00:33:16;6.47;;;2.70;;
64857;SDS011;51335;51.148;6.950;2023-07-24T00:33:47;5.57;;;2.80;;
64857;SDS011;51335;51.148;6.950;2023-07-24T00:34:17;6.20;;;2.83;;
64857;SDS011;51335;51.148;6.950;2023-07-24T00:34:47;4.78;;;3.03;;
64857;SDS011;51335;51.148;6.950;2023-07-24T00:35:18;3.13;;;2.70;;
64857;SDS011;51335;51.148;6.950;2023-07-24T00:35:48;5.55;;;3.03;;
64857;SDS011;51335;51.148;6.950;2023-07-24T00:36:18;4.05;;;2.97;;
64857;SDS011;51335;51.148;6.950;2023-07-24T00:36:48;3.70;;;2.88;;
64857;SDS011;51335;51.148;6.950;2023-07-24T00:37:19;4.68;;;3.05;;
64857;SDS011;51335;51.148;6.950;2023-07-24T00:37:49;5.40;;;2.80;;
64857;SDS011;51335;51.148;6.950;2023-07-24T00:38:19;7.30;;;2.97;;
64857;SDS011;51335;51.148;6.950;2023-07-24T00:38:58;5.00;;;3.00;;
64857;SDS011;51335;51.148;6.950;2023-07-24T00:39:29;5.72;;;3.20;;
64857;SDS011;51335;51.148;6.950;2023-07-24T00:39:59;5.90;;;3.05;;
64857;SDS011;51335;51.148;6.950;2023-07-24T00:40:29;4.20;;;3.08;;
64857;SDS011;51335;51.148;6.950;2023-07-24T00:40:59;3.60;;;2.92;;
64857;SDS011;51335;51.148;6.950;2023-07-24T00:41:30;4.60;;;3.10;;
64857;SDS011;51335;51.148;6.950;2023-07-24T00:42:01;5.60;;;3.00;;
64857;SDS011;51335;51.148;6.950;2023-07-24T00:42:31;4.53;;;3.00;;
64857;SDS011;51335;51.148;6.950;2023-07-24T00:43:02;4.78;;;3.13;;
64857;SDS011;51335;51.148;6.950;2023-07-24T00:43:32;6.28;;;3.15;;
64857;SDS011;51335;51.148;6.950;2023-07-24T00:44:02;5.32;;;3.30;;
64857;SDS011;51335;51.148;6.950;2023-07-24T00:44:32;5.00;;;3.10;;
64857;SDS011;51335;51.148;6.950;2023-07-24T00:45:03;4.13;;;3.15;;
64857;SDS011;51335;51.148;6.950;2023-07-24T00:45:34;4.20;;;2.78;;
64857;SDS011;51335;51.148;6.950;2023-07-24T00:46:04;5.53;;;3.35;;
64857;SDS011;51335;51.148;6.950;2023-07-24T00:46:34;4.18;;;2.95;;
64857;SDS011;51335;51.148;6.950;2023-07-24T00:47:05;6.60;;;3.30;;
64857;SDS011;51335;51.148;6.950;2023-07-24T00:47:36;7.85;;;3.10;;
64857;SDS011;51335;51.148;6.950;2023-07-24T00:48:06;4.80;;;3.05;;
64857;SDS011;51335;51.148;6.950;2023-07-24T00:48:37;7.25;;;3.00;;
64857;SDS011;51335;51.148;6.950;2023-07-24T00:49:08;4.55;;;3.22;;
64857;SDS011;51335;51.148;6.950;2023-07-24T00:49:38;3.42;;;2.53;;
64857;SDS011;51335;51.148;6.950;2023-07-24T00:50:09;5.25;;;3.40;;
64857;SDS011;51335;51.148;6.950;2023-07-24T00:50:42;7.18;;;3.15;;
64857;SDS011;51335;51.148;6.950;2023-07-24T00:51:14;6.05;;;3.05;;
64857;SDS011;51335;51.148;6.950;2023-07-24T00:51:44;4.72;;;3.20;;
64857;SDS011;51335;51.148;6.950;2023-07-24T00:52:16;5.60;;;2.92;;
64857;SDS011;51335;51.148;6.950;2023-07-24T00:52:46;5.47;;;3.00;;
64857;SDS011;51335;51.148;6.950;2023-07-24T00:53:17;6.38;;;3.40;;
64857;SDS011;51335;51.148;6.950;2023-07-24T00:53:49;4.70;;;2.95;;
64857;SDS011;51335;51.148;6.950;2023-07-24T00:54:19;5.00;;;3.00;;
64857;SDS011;51335;51.148;6.950;2023-07-24T00:54:52;6.63;;;3.13;;
64857;SDS011;51335;51.148;6.950;2023-07-24T00:55:23;3.92;;;2.88;;
64857;SDS011;51335;51.148;6.950;2023-07-24T00:55:54;5.13;;;3.10;;
64857;SDS011;51335;51.148;6.950;2023-07-24T00:56:24;5.13;;;3.17;;
64857;SDS011;51335;51.148;6.950;2023-07-24T00:56:54;3.60;;;2.78;;
64857;SDS011;51335;51.148;6.950;2023-07-24T00:57:25;5.15;;;2.85;;
64857;SDS011;51335;51.148;6.950;2023-07-24T00:57:56;5.07;;;3.33;;
64857;SDS011;51335;51.148;6.950;2023-07-24T00:58:28;4.22;;;2.97;;
64857;SDS011;51335;51.148;6.950;2023-07-24T00:58:59;6.10;;;3.10;;
64857;SDS011;51335;51.148;6.950;2023-07-24T00:59:30;5.03;;;2.92;;
64857;SDS011;51335;51.148;6.950;2023-07-24T01:00:02;5.88;;;3.20;;
64857;SDS011;51335;51.148;6.950;2023-07-24T01:00:32;4.95;;;3.30;;
64857;SDS011;51335;51.148;6.950;2023-07-24T01:01:03;7.75;;;3.17;;
64857;SDS011;51335;51.148;6.950;2023-07-24T01:01:34;4.22;;;3.00;;
64857;SDS011;51335;51.148;6.950;2023-07-24T01:02:05;11.07;;;3.30;;
64857;SDS011;51335;51.148;6.950;2023-07-24T01:02:36;6.55;;;3.60;;
64857;SDS011;51335;51.148;6.950;2023-07-24T01:03:06;8.38;;;3.00;;
64857;SDS011;51335;51.148;6.950;2023-07-24T01:03:37;5.55;;;3.00;;
64857;SDS011;51335;51.148;6.950;2023-07-24T01:04:08;7.47;;;3.00;;
64857;SDS011;51335;51.148;6.950;2023-07-24T01:04:39;7.05;;;3.15;;
64857;SDS011;51335;51.148;6.950;2023-07-24T01:05:09;5.05;;;2.97;;
64857;SDS011;51335;51.148;6.950;2023-07-24T01:05:42;5.22;;;3.35;;
64857;SDS011;51335;51.148;6.950;2023-07-24T01:06:12;4.80;;;3.00;;
64857;SDS011;51335;51.148;6.950;2023-07-24T01:06:43;4.68;;;3.10;;
64857;SDS011;51335;51.148;6.950;2023-07-24T01:07:13;7.43;;;3.03;;
64857;SDS011;51335;51.148;6.950;2023-07-24T01:07:43;7.32;;;3.22;;
64857;SDS011;51335;51.148;6.950;2023-07-24T01:08:13;4.55;;;3.13;;
64857;SDS011;51335;51.148;6.950;2023-07-24T01:08:44;5.53;;;3.22;;
64857;SDS011;51335;51.148;6.950;2023-07-24T01:09:14;8.00;;;3.75;;
64857;SDS011;51335;51.148;6.950;2023-07-24T01:09:44;6.07;;;3.05;;
64857;SDS011;51335;51.148;6.950;2023-07-24T01:10:15;8.57;;;3.35;;
64857;SDS011;51335;51.148;6.950;2023-07-24T01:10:45;7.57;;;3.15;;
64857;SDS011;51335;51.148;6.950;2023-07-24T01:11:18;5.90;;;3.30;;
64857;SDS011;51335;51.148;6.950;2023-07-24T01:11:52;6.32;;;3.40;;
64857;SDS011;51335;51.148;6.950;2023-07-24T01:12:35;10.25;;;3.50;;
64857;SDS011;51335;51.148;6.950;2023-07-24T01:13:10;6.70;;;3.17;;
64857;SDS011;51335;51.148;6.950;2023-07-24T01:13:53;8.70;;;3.50;;
64857;SDS011;51335;51.148;6.950;2023-07-24T01:15:56;8.00;;;3.23;;
64857;SDS011;51335;51.148;6.950;2023-07-24T01:16:33;6.20;;;3.42;;
64857;SDS011;51335;51.148;6.950;2023-07-24T01:17:07;7.05;;;3.30;;
64857;SDS011;51335;51.148;6.950;2023-07-24T01:17:39;7.65;;;3.28;;
64857;SDS011;51335;51.148;6.950;2023-07-24T01:18:14;7.75;;;3.40;;
64857;SDS011;51335;51.148;6.950;2023-07-24T01:18:46;6.65;;;3.50;;
64857;SDS011;51335;51.148;6.950;2023-07-24T01:19:37;6.18;;;3.65;;
64857;SDS011;51335;51.148;6.950;2023-07-24T01:20:11;7.18;;;3.67;;
64857;SDS011;51335;51.148;6.950;2023-07-24T01:20:43;6.72;;;3.75;;
64857;SDS011;51335;51.148;6.950;2023-07-24T01:21:18;6.75;;;3.42;;
64857;SDS011;51335;51.148;6.950;2023-07-24T01:22:01;13.60;;;3.80;;
64857;SDS011;51335;51.148;6.950;2023-07-24T01:23:51;6.20;;;3.55;;
64857;SDS011;51335;51.148;6.950;2023-07-24T01:25:33;5.65;;;3.00;;
64857;SDS011;51335;51.148;6.950;2023-07-24T01:26:04;6.57;;;3.17;;
64857;SDS011;51335;51.148;6.950;2023-07-24T01:26:35;8.15;;;3.90;;
64857;SDS011;51335;51.148;6.950;2023-07-24T01:27:07;8.45;;;3.58;;
64857;SDS011;51335;51.148;6.950;2023-07-24T01:27:44;6.70;;;3.30;;
64857;SDS011;51335;51.148;6.950;2023-07-24T01:28:15;6.22;;;3.53;;
64857;SDS011;51335;51.148;6.950;2023-07-24T01:28:45;5.45;;;3.20;;
64857;SDS011;51335;51.148;6.950;2023-07-24T01:29:15;6.13;;;3.28;;
64857;SDS011;51335;51.148;6.950;2023-07-24T01:29:46;7.18;;;3.55;;
64857;SDS011;51335;51.148;6.950;2023-07-24T01:30:17;5.50;;;3.60;;
64857;SDS011;51335;51.148;6.950;2023-07-24T01:30:48;5.70;;;3.70;;
64857;SDS011;51335;51.148;6.950;2023-07-24T01:31:18;7.15;;;3.72;;
64857;SDS011;51335;51.148;6.950;2023-07-24T01:31:48;8.15;;;3.50;;
64857;SDS011;51335;51.148;6.950;2023-07-24T01:32:19;9.00;;;3.72;;
64857;SDS011;51335;51.148;6.950;2023-07-24T01:32:49;4.82;;;3.65;;
64857;SDS011;51335;51.148;6.950;2023-07-24T01:33:20;6.30;;;3.72;;
64857;SDS011;51335;51.148;6.950;2023-07-24T01:33:51;5.43;;;3.63;;
64857;SDS011;51335;51.148;6.950;2023-07-24T01:34:21;7.80;;;3.92;;
64857;SDS011;51335;51.148;6.950;2023-07-24T01:34:52;6.65;;;3.42;;
64857;SDS011;51335;51.148;6.950;2023-07-24T01:35:22;5.78;;;3.13;;
64857;SDS011;51335;51.148;6.950;2023-07-24T01:35:58;5.30;;;3.30;;
64857;SDS011;51335;51.148;6.950;2023-07-24T01:36:30;11.40;;;3.38;;
64857;SDS011;51335;51.148;6.950;2023-07-24T01:37:00;6.55;;;3.25;;
64857;SDS011;51335;51.148;6.950;2023-07-24T01:37:31;6.82;;;3.35;;
64857;SDS011;51335;51.148;6.950;2023-07-24T01:38:04;7.13;;;3.80;;
64857;SDS011;51335;51.148;6.950;2023-07-24T01:38:35;4.72;;;3.20;;
64857;SDS011;51335;51.148;6.950;2023-07-24T01:39:06;9.13;;;3.80;;
64857;SDS011;51335;51.148;6.950;2023-07-24T01:39:37;7.93;;;3.35;;
64857;SDS011;51335;51.148;6.950;2023-07-24T01:40:09;6.47;;;3.53;;
64857;SDS011;51335;51.148;6.950;2023-07-24T01:40:40;5.03;;;3.50;;
64857;SDS011;51335;51.148;6.950;2023-07-24T01:41:10;5.45;;;3.70;;
64857;SDS011;51335;51.148;6.950;2023-07-24T01:41:41;7.50;;;3.40;;
64857;SDS011;51335;51.148;6.950;2023-07-24T01:42:12;4.60;;;3.47;;
64857;SDS011;51335;51.148;6.950;2023-07-24T01:42:44;5.03;;;3.50;;
64857;SDS011;51335;51.148;6.950;2023-07-24T01:43:14;8.65;;;3.45;;
64857;SDS011;51335;51.148;6.950;2023-07-24T01:43:44;4.65;;;3.25;;
64857;SDS011;51335;51.148;6.950;2023-07-24T01:44:15;5.90;;;3.70;;
64857;SDS011;51335;51.148;6.950;2023-07-24T01:44:50;5.65;;;3.85;;
64857;SDS011;51335;51.148;6.950;2023-07-24T01:45:21;8.55;;;4.10;;
64857;SDS011;51335;51.148;6.950;2023-07-24T01:45:51;6.18;;;3.65;;
64857;SDS011;51335;51.148;6.950;2023-07-24T01:46:22;4.45;;;3.47;;
64857;SDS011;51335;51.148;6.950;2023-07-24T01:46:52;5.75;;;3.35;;
64857;SDS011;51335;51.148;6.950;2023-07-24T01:47:22;7.28;;;3.28;;
64857;SDS011;51335;51.148;6.950;2023-07-24T01:47:52;8.40;;;3.45;;
64857;SDS011;51335;51.148;6.950;2023-07-24T01:48:23;7.22;;;3.33;;
64857;SDS011;51335;51.148;6.950;2023-07-24T01:48:53;5.97;;;3.63;;
64857;SDS011;51335;51.148;6.950;2023-07-24T01:49:23;6.50;;;3.22;;
64857;SDS011;51335;51.148;6.950;2023-07-24T01:49:53;7.93;;;3.80;;
64857;SDS011;51335;51.148;6.950;2023-07-24T01:50:24;6.20;;;3.47;;
64857;SDS011;51335;51.148;6.950;2023-07-24T01:50:54;5.07;;;3.10;;
64857;SDS011;51335;51.148;6.950;2023-07-24T01:51:24;5.90;;;3.50;;
64857;SDS011;51335;51.148;6.950;2023-07-24T01:51:54;5.60;;;3.22;;
64857;SDS011;51335;51.148;6.950;2023-07-24T01:52:25;7.20;;;3.97;;
64857;SDS011;51335;51.148;6.950;2023-07-24T01:52:55;6.30;;;3.20;;
64857;SDS011;51335;51.148;6.950;2023-07-24T01:53:26;6.82;;;3.10;;
64857;SDS011;51335;51.148;6.950;2023-07-24T01:53:56;5.63;;;3.13;;
64857;SDS011;51335;51.148;6.950;2023-07-24T01:54:26;12.95;;;3.70;;
64857;SDS011;51335;51.148;6.950;2023-07-24T01:54:56;7.22;;;3.40;;
64857;SDS011;51335;51.148;6.950;2023-07-24T01:55:27;6.78;;;3.20;;
64857;SDS011;51335;51.148;6.950;2023-07-24T01:55:57;5.95;;;3.30;;
64857;SDS011;51335;51.148;6.950;2023-07-24T01:56:28;7.60;;;3.90;;
64857;SDS011;51335;51.148;6.950;2023-07-24T01:56:58;7.05;;;3.33;;
64857;SDS011;51335;51.148;6.950;2023-07-24T01:57:28;5.50;;;3.30;;
64857;SDS011;51335;51.148;6.950;2023-07-24T01:57:59;7.05;;;3.50;;
64857;SDS011;51335;51.148;6.950;2023-07-24T01:58:29;5.93;;;3.80;;
64857;SDS011;51335;51.148;6.950;2023-07-24T01:58:59;6.10;;;3.78;;
64857;SDS011;51335;51.148;6.950;2023-07-24T01:59:30;7.35;;;3.13;;
64857;SDS011;51335;51.148;6.950;2023-07-24T02:00:00;7.35;;;3.50;;
64857;SDS011;51335;51.148;6.950;2023-07-24T02:00:30;5.20;;;3.17;;
64857;SDS011;51335;51.148;6.950;2023-07-24T02:01:01;6.30;;;3.28;;
64857;SDS011;51335;51.148;6.950;2023-07-24T02:01:31;8.32;;;3.40;;
64857;SDS011;51335;51.148;6.950;2023-07-24T02:02:01;4.88;;;3.45;;
64857;SDS011;51335;51.148;6.950;2023-07-24T02:02:32;6.22;;;3.45;;
64857;SDS011;51335;51.148;6.950;2023-07-24T02:03:02;5.80;;;3.42;;
64857;SDS011;51335;51.148;6.950;2023-07-24T02:03:32;5.97;;;3.70;;
64857;SDS011;51335;51.148;6.950;2023-07-24T02:04:03;5.50;;;3.22;;
64857;SDS011;51335;51.148;6.950;2023-07-24T02:04:33;6.05;;;3.15;;
64857;SDS011;51335;51.148;6.950;2023-07-24T02:05:03;6.53;;;3.10;;
64857;SDS011;51335;51.148;6.950;2023-07-24T02:05:34;5.40;;;3.40;;
64857;SDS011;51335;51.148;6.950;2023-07-24T02:06:04;5.93;;;3.40;;
64857;SDS011;51335;51.148;6.950;2023-07-24T02:06:35;6.43;;;3.60;;
64857;SDS011;51335;51.148;6.950;2023-07-24T02:07:05;6.18;;;3.60;;
64857;SDS011;51335;51.148;6.950;2023-07-24T02:07:35;6.82;;;3.80;;
64857;SDS011;51335;51.148;6.950;2023-07-24T02:08:05;6.03;;;3.45;;
64857;SDS011;51335;51.148;6.950;2023-07-24T02:08:36;6.40;;;3.30;;
64857;SDS011;51335;51.148;6.950;2023-07-24T02:09:06;6.78;;;3.47;;
64857;SDS011;51335;51.148;6.950;2023-07-24T02:09:36;4.50;;;3.40;;
64857;SDS011;51335;51.148;6.950;2023-07-24T02:10:07;6.30;;;3.28;;
64857;SDS011;51335;51.148;6.950;2023-07-24T02:10:37;6.30;;;3.38;;
64857;SDS011;51335;51.148;6.950;2023-07-24T02:11:07;5.80;;;3.30;;
64857;SDS011;51335;51.148;6.950;2023-07-24T02:11:38;4.57;;;3.00;;
64857;SDS011;51335;51.148;6.950;2023-07-24T02:12:08;8.77;;;3.55;;
64857;SDS011;51335;51.148;6.950;2023-07-24T02:12:38;7.28;;;3.50;;
64857;SDS011;51335;51.148;6.950;2023-07-24T02:13:09;5.45;;;3.50;;
64857;SDS011;51335;51.148;6.950;2023-07-24T02:13:39;5.90;;;3.70;;
64857;SDS011;51335;51.148;6.950;2023-07-24T02:14:09;6.60;;;3.80;;
64857;SDS011;51335;51.148;6.950;2023-07-24T02:14:41;6.72;;;3.63;;
64857;SDS011;51335;51.148;6.950;2023-07-24T02:15:11;6.40;;;3.25;;
64857;SDS011;51335;51.148;6.950;2023-07-24T02:15:42;7.18;;;3.60;;
64857;SDS011;51335;51.148;6.950;2023-07-24T02:16:12;6.10;;;3.45;;
64857;SDS011;51335;51.148;6.950;2023-07-24T02:16:43;6.95;;;3.40;;
64857;SDS011;51335;51.148;6.950;2023-07-24T02:17:13;5.40;;;3.42;;
64857;SDS011;51335;51.148;6.950;2023-07-24T02:17:43;5.82;;;3.33;;
64857;SDS011;51335;51.148;6.950;2023-07-24T02:18:14;6.32;;;3.60;;
64857;SDS011;51335;51.148;6.950;2023-07-24T02:18:44;6.18;;;3.65;;
64857;SDS011;51335;51.148;6.950;2023-07-24T02:19:15;7.50;;;3.45;;
64857;SDS011;51335;51.148;6.950;2023-07-24T02:19:45;7.22;;;3.70;;
64857;SDS011;51335;51.148;6.950;2023-07-24T02:20:15;5.70;;;3.38;;
64857;SDS011;51335;51.148;6.950;2023-07-24T02:20:49;6.97;;;3.95;;
64857;SDS011;51335;51.148;6.950;2023-07-24T02:21:20;5.80;;;3.85;;
64857;SDS011;51335;51.148;6.950;2023-07-24T02:21:50;5.68;;;3.60;;
64857;SDS011;51335;51.148;6.950;2023-07-24T02:22:21;7.55;;;3.88;;
64857;SDS011;51335;51.148;6.950;2023-07-24T02:22:51;6.55;;;3.67;;
64857;SDS011;51335;51.148;6.950;2023-07-24T02:23:21;6.03;;;3.40;;
64857;SDS011;51335;51.148;6.950;2023-07-24T02:23:51;4.50;;;3.38;;
64857;SDS011;51335;51.148;6.950;2023-07-24T02:24:22;7.45;;;3.28;;
64857;SDS011;51335;51.148;6.950;2023-07-24T02:24:52;5.43;;;3.47;;
64857;SDS011;51335;51.148;6.950;2023-07-24T02:25:22;6.40;;;3.35;;
64857;SDS011;51335;51.148;6.950;2023-07-24T02:25:52;5.38;;;3.45;;
64857;SDS011;51335;51.148;6.950;2023-07-24T02:26:23;6.47;;;3.53;;
64857;SDS011;51335;51.148;6.950;2023-07-24T02:26:53;5.13;;;3.40;;
64857;SDS011;51335;51.148;6.950;2023-07-24T02:27:27;6.00;;;3.47;;
64857;SDS011;51335;51.148;6.950;2023-07-24T02:27:58;8.32;;;3.38;;
64857;SDS011;51335;51.148;6.950;2023-07-24T02:28:29;5.25;;;3.53;;
64857;SDS011;51335;51.148;6.950;2023-07-24T02:28:59;3.95;;;3.25;;
64857;SDS011;51335;51.148;6.950;2023-07-24T02:29:29;5.28;;;3.30;;
64857;SDS011;51335;51.148;6.950;2023-07-24T02:30:00;6.47;;;3.92;;
64857;SDS011;51335;51.148;6.950;2023-07-24T02:30:32;5.05;;;3.50;;
64857;SDS011;51335;51.148;6.950;2023-07-24T02:31:02;6.40;;;3.33;;
64857;SDS011;51335;51.148;6.950;2023-07-24T02:31:32;8.13;;;3.50;;
64857;SDS011;51335;51.148;6.950;2023-07-24T02:32:03;5.30;;;3.30;;
64857;SDS011;51335;51.148;6.950;2023-07-24T02:32:33;4.13;;;3.05;;
64857;SDS011;51335;51.148;6.950;2023-07-24T02:33:04;5.32;;;3.70;;
64857;SDS011;51335;51.148;6.950;2023-07-24T02:33:34;7.10;;;3.47;;
64857;SDS011;51335;51.148;6.950;2023-07-24T02:34:04;6.70;;;3.50;;
64857;SDS011;51335;51.148;6.950;2023-07-24T02:34:34;6.47;;;3.60;;
64857;SDS011;51335;51.148;6.950;2023-07-24T02:35:05;5.57;;;3.33;;
64857;SDS011;51335;51.148;6.950;2023-07-24T02:35:39;4.53;;;3.00;;
64857;SDS011;51335;51.148;6.950;2023-07-24T02:36:10;4.63;;;2.97;;
64857;SDS011;51335;51.148;6.950;2023-07-24T02:36:40;5.93;;;3.08;;
64857;SDS011;51335;51.148;6.950;2023-07-24T02:37:10;3.90;;;3.35;;
64857;SDS011;51335;51.148;6.950;2023-07-24T02:37:40;4.68;;;3.00;;
64857;SDS011;51335;51.148;6.950;2023-07-24T02:38:11;6.32;;;3.40;;
64857;SDS011;51335;51.148;6.950;2023-07-24T02:38:41;5.95;;;3.03;;
64857;SDS011;51335;51.148;6.950;2023-07-24T02:39:11;4.97;;;3.10;;
64857;SDS011;51335;51.148;6.950;2023-07-24T02:39:41;5.65;;;3.50;;
64857;SDS011;51335;51.148;6.950;2023-07-24T02:40:12;5.50;;;3.10;;
64857;SDS011;51335;51.148;6.950;2023-07-24T02:40:43;5.00;;;3.17;;
64857;SDS011;51335;51.148;6.950;2023-07-24T02:41:14;5.78;;;3.20;;
64857;SDS011;51335;51.148;6.950;2023-07-24T02:41:44;6.72;;;3.47;;
64857;SDS011;51335;51.148;6.950;2023-07-24T02:42:15;4.03;;;3.22;;
64857;SDS011;51335;51.148;6.950;2023-07-24T02:42:45;3.70;;;3.00;;
64857;SDS011;51335;51.148;6.950;2023-07-24T02:43:15;4.05;;;3.28;;
64857;SDS011;51335;51.148;6.950;2023-07-24T02:43:45;8.32;;;3.30;;
64857;SDS011;51335;51.148;6.950;2023-07-24T02:44:16;6.18;;;3.55;;
64857;SDS011;51335;51.148;6.950;2023-07-24T02:44:46;6.93;;;3.25;;
64857;SDS011;51335;51.148;6.950;2023-07-24T02:45:16;6.55;;;3.05;;
64857;SDS011;51335;51.148;6.950;2023-07-24T02:45:46;5.80;;;3.58;;
64857;SDS011;51335;51.148;6.950;2023-07-24T02:46:17;6.85;;;3.20;;
64857;SDS011;51335;51.148;6.950;2023-07-24T02:46:47;5.57;;;3.33;;
64857;SDS011;51335;51.148;6.950;2023-07-24T02:47:17;6.40;;;3.10;;
64857;SDS011;51335;51.148;6.950;2023-07-24T02:47:47;7.30;;;3.15;;
64857;SDS011;51335;51.148;6.950;2023-07-24T02:48:18;4.32;;;3.20;;
64857;SDS011;51335;51.148;6.950;2023-07-24T02:48:48;13.15;;;3.60;;
64857;SDS011;51335;51.148;6.950;2023-07-24T02:49:18;6.28;;;3.42;;
64857;SDS011;51335;51.148;6.950;2023-07-24T02:49:48;9.93;;;3.45;;
64857;SDS011;51335;51.148;6.950;2023-07-24T02:50:19;7.63;;;3.65;;
64857;SDS011;51335;51.148;6.950;2023-07-24T02:50:49;4.43;;;3.20;;
64857;SDS011;51335;51.148;6.950;2023-07-24T02:51:19;4.97;;;3.25;;
64857;SDS011;51335;51.148;6.950;2023-07-24T02:51:49;5.57;;;3.42;;
64857;SDS011;51335;51.148;6.950;2023-07-24T02:52:20;5.82;;;3.60;;
64857;SDS011;51335;51.148;6.950;2023-07-24T02:52:50;5.53;;;3.70;;
64857;SDS011;51335;51.148;6.950;2023-07-24T02:53:20;6.28;;;3.20;;
64857;SDS011;51335;51.148;6.950;2023-07-24T02:53:52;5.88;;;3.58;;
64857;SDS011;51335;51.148;6.950;2023-07-24T02:54:25;5.47;;;3.42;;
64857;SDS011;51335;51.148;6.950;2023-07-24T02:54:55;6.07;;;3.40;;
64857;SDS011;51335;51.148;6.950;2023-07-24T02:55:25;5.20;;;3.35;;
64857;SDS011;51335;51.148;6.950;2023-07-24T02:55:56;5.97;;;3.38;;
64857;SDS011;51335;51.148;6.950;2023-07-24T02:56:26;6.18;;;3.45;;
64857;SDS011;51335;51.148;6.950;2023-07-24T02:56:56;5.70;;;3.58;;
64857;SDS011;51335;51.148;6.950;2023-07-24T02:57:26;4.63;;;3.45;;
64857;SDS011;51335;51.148;6.950;2023-07-24T02:57:57;5.13;;;3.25;;
64857;SDS011;51335;51.148;6.950;2023-07-24T02:58:27;5.35;;;3.30;;
64857;SDS011;51335;51.148;6.950;2023-07-24T02:58:57;6.00;;;3.33;;
64857;SDS011;51335;51.148;6.950;2023-07-24T02:59:29;9.15;;;3.47;;
64857;SDS011;51335;51.148;6.950;2023-07-24T02:59:59;7.25;;;3.30;;
64857;SDS011;51335;51.148;6.950;2023-07-24T03:00:31;7.35;;;3.58;;
64857;SDS011;51335;51.148;6.950;2023-07-24T03:01:04;7.10;;;3.65;;
64857;SDS011;51335;51.148;6.950;2023-07-24T03:01:36;5.72;;;3.47;;
64857;SDS011;51335;51.148;6.950;2023-07-24T03:02:06;5.07;;;3.38;;
64857;SDS011;51335;51.148;6.950;2023-07-24T03:02:37;4.78;;;3.47;;
64857;SDS011;51335;51.148;6.950;2023-07-24T03:03:08;6.60;;;3.35;;
64857;SDS011;51335;51.148;6.950;2023-07-24T03:03:38;7.40;;;3.45;;
64857;SDS011;51335;51.148;6.950;2023-07-24T03:04:08;6.53;;;3.97;;
64857;SDS011;51335;51.148;6.950;2023-07-24T03:04:38;4.40;;;3.33;;
64857;SDS011;51335;51.148;6.950;2023-07-24T03:05:09;5.90;;;3.40;;
64857;SDS011;51335;51.148;6.950;2023-07-24T03:05:39;4.75;;;3.60;;
64857;SDS011;51335;51.148;6.950;2023-07-24T03:06:09;5.65;;;3.28;;
64857;SDS011;51335;51.148;6.950;2023-07-24T03:06:39;6.70;;;3.30;;
64857;SDS011;51335;51.148;6.950;2023-07-24T03:07:10;7.43;;;3.60;;
64857;SDS011;51335;51.148;6.950;2023-07-24T03:07:40;7.30;;;4.00;;
64857;SDS011;51335;51.148;6.950;2023-07-24T03:08:10;3.85;;;3.15;;
64857;SDS011;51335;51.148;6.950;2023-07-24T03:08:40;6.15;;;3.53;;
64857;SDS011;51335;51.148;6.950;2023-07-24T03:09:11;5.85;;;3.47;;
64857;SDS011;51335;51.148;6.950;2023-07-24T03:09:41;6.25;;;3.40;;
64857;SDS011;51335;51.148;6.950;2023-07-24T03:10:11;7.63;;;3.80;;